createdAt,value
2023-05-06T00:02:04.589Z,34.57
2023-05-06T00:04:32.647Z,33.93
2023-05-06T00:07:00.421Z,36.67
2023-05-06T00:09:28.189Z,35.40
2023-05-06T00:11:56.268Z,33.60
2023-05-06T00:14:24.055Z,32.30
2023-05-06T00:16:51.787Z,32.60
2023-05-06T00:19:19.574Z,32.70
2023-05-06T00:21:47.319Z,32.13
2023-05-06T00:24:15.054Z,32.07
2023-05-06T00:26:42.750Z,35.97
2023-05-06T00:29:10.408Z,30.97
2023-05-06T00:31:38.265Z,30.97
2023-05-06T00:34:05.982Z,30.37
2023-05-06T00:36:34.268Z,29.57
2023-05-06T00:39:01.922Z,31.00
2023-05-06T00:41:34.191Z,29.17
2023-05-06T00:44:01.929Z,29.87
2023-05-06T00:46:30.104Z,29.90
2023-05-06T00:48:58.192Z,32.43
2023-05-06T00:51:27.565Z,30.10
2023-05-06T00:53:55.764Z,31.67
2023-05-06T00:56:23.983Z,28.63
2023-05-06T00:58:52.015Z,29.77
2023-05-06T01:01:22.935Z,31.03
2023-05-06T01:03:55.386Z,31.13
2023-05-06T01:07:20.150Z,29.97
2023-05-06T01:10:02.484Z,28.20
2023-05-06T01:13:13.621Z,28.70
2023-05-06T01:15:55.977Z,26.37
2023-05-06T01:18:31.696Z,30.73
2023-05-06T01:21:02.035Z,32.20
2023-05-06T01:23:29.857Z,26.80
2023-05-06T01:25:57.597Z,29.90
2023-05-06T01:28:25.226Z,29.93
2023-05-06T01:31:06.962Z,29.00
2023-05-06T01:34:28.126Z,27.80
2023-05-06T01:37:21.445Z,30.10
2023-05-06T01:39:56.040Z,30.40
2023-05-06T01:42:29.181Z,28.27
2023-05-06T01:45:02.090Z,29.47
2023-05-06T01:47:30.267Z,25.97
2023-05-06T01:49:59.628Z,28.67
2023-05-06T01:52:27.949Z,30.03
2023-05-06T01:54:55.647Z,28.17
2023-05-06T01:57:23.472Z,27.23
2023-05-06T01:59:52.006Z,26.37
2023-05-06T02:02:19.748Z,26.23
2023-05-06T02:04:47.646Z,27.90
2023-05-06T02:07:15.714Z,28.10
2023-05-06T02:09:46.083Z,27.23
2023-05-06T02:12:13.757Z,27.70
2023-05-06T02:14:42.033Z,29.10
2023-05-06T02:17:09.792Z,27.77
2023-05-06T02:19:37.438Z,29.57
2023-05-06T02:22:05.085Z,29.33
2023-05-06T02:24:32.910Z,29.30
2023-05-06T02:27:02.343Z,26.83
2023-05-06T02:29:30.479Z,30.40
2023-05-06T02:31:58.187Z,28.80
2023-05-06T02:34:26.116Z,26.57
2023-05-06T02:36:54.001Z,24.17
2023-05-06T02:39:23.104Z,25.80
2023-05-06T02:41:50.739Z,28.60
2023-05-06T02:44:19.243Z,29.93
2023-05-06T02:46:46.984Z,31.27
2023-05-06T02:49:14.697Z,27.00
2023-05-06T02:51:42.428Z,29.60
2023-05-06T02:54:10.089Z,30.00
2023-05-06T02:56:37.791Z,28.40
2023-05-06T02:59:06.308Z,25.87
2023-05-06T03:01:34.024Z,27.93
2023-05-06T03:04:01.763Z,28.73
2023-05-06T03:06:29.537Z,29.70
2023-05-06T03:08:57.889Z,28.93
2023-05-06T03:11:25.769Z,28.87
2023-05-06T03:13:53.589Z,29.00
2023-05-06T03:16:21.500Z,28.50
2023-05-06T03:18:53.201Z,28.23
2023-05-06T03:21:21.244Z,27.07
2023-05-06T03:23:50.752Z,28.33
2023-05-06T03:26:21.628Z,26.87
2023-05-06T03:28:50.260Z,29.10
2023-05-06T03:31:21.080Z,27.67
2023-05-06T03:33:49.406Z,28.70
2023-05-06T03:36:18.284Z,27.57
2023-05-06T03:38:48.692Z,27.50
2023-05-06T03:41:18.403Z,28.87
2023-05-06T03:43:46.852Z,28.77
2023-05-06T03:46:17.001Z,31.40
2023-05-06T03:48:45.147Z,32.80
2023-05-06T03:51:16.629Z,33.23
2023-05-06T03:53:45.154Z,31.17
2023-05-06T03:56:13.390Z,29.93
2023-05-06T03:58:41.345Z,29.27
2023-05-06T04:01:11.824Z,31.10
2023-05-06T04:03:39.879Z,27.00
2023-05-06T04:06:08.239Z,28.30
2023-05-06T04:08:36.038Z,30.27
2023-05-06T04:11:08.955Z,31.30
2023-05-06T04:13:38.423Z,31.37
2023-05-06T04:16:12.942Z,28.90
2023-05-06T04:18:46.279Z,31.30
2023-05-06T04:21:16.762Z,32.00
2023-05-06T04:23:49.441Z,33.27
2023-05-06T04:26:22.190Z,36.83
2023-05-06T04:28:50.288Z,30.57
2023-05-06T04:31:19.108Z,37.40
2023-05-06T04:33:50.653Z,34.30
2023-05-06T04:36:24.010Z,36.20
2023-05-06T04:39:11.486Z,34.80
2023-05-06T04:41:40.926Z,33.70
2023-05-06T04:44:10.446Z,36.30
2023-05-06T04:46:38.285Z,35.53
2023-05-06T04:49:06.675Z,34.03
2023-05-06T04:51:35.550Z,30.83
2023-05-06T04:54:04.170Z,35.17
2023-05-06T04:56:32.153Z,33.40
2023-05-06T04:59:00.083Z,34.67
2023-05-06T05:01:28.789Z,36.20
2023-05-06T05:03:57.874Z,35.60
2023-05-06T05:06:25.764Z,36.63
2023-05-06T05:08:55.438Z,37.33
2023-05-06T05:11:25.300Z,35.97
2023-05-06T05:13:55.380Z,34.40
2023-05-06T05:16:24.810Z,36.90
2023-05-06T05:18:54.144Z,35.90
2023-05-06T05:21:27.959Z,34.40
2023-05-06T05:23:57.336Z,35.07
2023-05-06T05:26:25.034Z,35.00
2023-05-06T05:28:54.734Z,33.67
2023-05-06T05:31:24.405Z,33.17
2023-05-06T05:33:52.561Z,31.00
2023-05-06T05:36:23.870Z,30.97
2023-05-06T05:38:55.505Z,33.33
2023-05-06T05:41:27.001Z,31.87
2023-05-06T05:43:55.940Z,32.37
2023-05-06T05:46:24.469Z,32.33
2023-05-06T05:48:52.786Z,31.10
2023-05-06T05:51:23.464Z,27.80
2023-05-06T05:53:52.457Z,25.27
2023-05-06T05:56:22.089Z,25.03
2023-05-06T05:58:50.377Z,23.40
2023-05-06T06:01:18.525Z,20.27
2023-05-06T06:03:48.091Z,18.83
2023-05-06T06:06:16.028Z,18.10
2023-05-06T06:08:44.262Z,15.07
2023-05-06T06:11:13.712Z,16.93
2023-05-06T06:13:42.764Z,15.57
2023-05-06T06:16:11.871Z,17.83
2023-05-06T06:18:39.642Z,15.83
2023-05-06T06:21:07.958Z,16.17
2023-05-06T06:23:36.561Z,16.00
2023-05-06T06:26:04.800Z,16.17
2023-05-06T06:28:34.091Z,16.60
2023-05-06T06:31:02.091Z,15.57
2023-05-06T06:33:29.748Z,15.90
2023-05-06T06:35:58.764Z,16.27
2023-05-06T06:38:26.641Z,17.10
2023-05-06T06:40:56.010Z,17.40
2023-05-06T06:43:24.860Z,14.80
2023-05-06T06:46:15.905Z,15.60
2023-05-06T06:48:43.644Z,15.90
2023-05-06T06:51:11.195Z,15.63
2023-05-06T06:53:38.804Z,14.00
2023-05-06T06:56:13.197Z,15.33
2023-05-06T06:58:40.963Z,16.33
2023-05-06T07:01:08.900Z,16.73
2023-05-06T07:03:37.032Z,15.70
2023-05-06T07:06:04.843Z,14.60
2023-05-06T07:08:32.501Z,15.33
2023-05-06T07:11:00.178Z,15.97
2023-05-06T07:13:27.800Z,15.40
2023-05-06T07:15:55.481Z,16.80
2023-05-06T07:18:23.150Z,14.77
2023-05-06T07:20:50.894Z,16.50
2023-05-06T07:23:19.499Z,15.40
2023-05-06T07:25:47.155Z,16.43
2023-05-06T07:28:15.808Z,14.80
2023-05-06T07:30:43.770Z,14.57
2023-05-06T07:33:11.484Z,15.53
2023-05-06T07:35:39.938Z,16.17
2023-05-06T07:38:07.648Z,14.60
2023-05-06T07:40:35.971Z,15.87
2023-05-06T07:43:04.333Z,15.60
2023-05-06T07:45:31.953Z,16.10
2023-05-06T07:47:59.627Z,17.23
2023-05-06T07:50:27.235Z,16.67
2023-05-06T07:52:54.771Z,16.80
2023-05-06T07:55:22.334Z,18.40
2023-05-06T07:57:50.711Z,17.20
2023-05-06T08:00:19.088Z,17.87
2023-05-06T08:02:48.244Z,17.43
2023-05-06T08:05:17.341Z,14.77
2023-05-06T08:07:45.134Z,15.23
2023-05-06T08:10:12.761Z,13.83
2023-05-06T08:12:40.373Z,14.53
2023-05-06T08:15:10.025Z,13.90
2023-05-06T08:17:38.193Z,12.97
2023-05-06T08:20:08.340Z,11.80
2023-05-06T08:22:35.984Z,9.40
2023-05-06T08:25:04.014Z,9.80
2023-05-06T08:27:31.880Z,8.57
2023-05-06T08:29:59.515Z,10.00
2023-05-06T08:32:27.174Z,8.93
2023-05-06T08:34:54.833Z,7.07
2023-05-06T08:37:22.391Z,8.27
2023-05-06T08:39:50.036Z,9.77
2023-05-06T08:42:18.388Z,10.20
2023-05-06T08:44:47.866Z,9.63
2023-05-06T08:47:16.169Z,7.37
2023-05-06T08:49:43.750Z,12.67
2023-05-06T08:52:12.775Z,9.67
2023-05-06T08:54:42.817Z,8.57
2023-05-06T08:57:14.283Z,8.37
2023-05-06T08:59:43.118Z,6.30
2023-05-06T09:02:11.644Z,6.60
2023-05-06T09:04:40.482Z,6.17
2023-05-06T09:07:09.111Z,5.47
2023-05-06T09:09:36.837Z,5.40
2023-05-06T09:12:09.782Z,5.13
2023-05-06T09:14:37.554Z,5.13
2023-05-06T09:17:05.721Z,5.33
2023-05-06T09:19:38.732Z,4.20
2023-05-06T09:22:06.849Z,5.10
2023-05-06T09:24:34.787Z,5.70
2023-05-06T09:27:03.331Z,5.67
2023-05-06T09:29:30.994Z,4.80
2023-05-06T09:32:04.486Z,4.53
2023-05-06T09:34:32.114Z,4.63
2023-05-06T09:36:59.706Z,4.70
2023-05-06T09:39:27.924Z,6.20
2023-05-06T09:41:55.795Z,4.90
2023-05-06T09:44:24.627Z,5.57
2023-05-06T09:46:52.564Z,4.20
2023-05-06T09:49:20.885Z,3.73
2023-05-06T09:51:51.761Z,3.50
2023-05-06T09:54:20.367Z,3.43
2023-05-06T09:56:50.779Z,3.10
2023-05-06T09:59:21.213Z,2.50
2023-05-06T10:01:51.857Z,3.37
2023-05-06T10:04:26.682Z,2.40
2023-05-06T10:07:03.406Z,2.50
2023-05-06T10:09:32.114Z,2.40
2023-05-06T10:12:02.341Z,2.20
2023-05-06T10:14:30.151Z,2.90
2023-05-06T10:16:59.732Z,3.03
2023-05-06T10:19:30.726Z,3.10
2023-05-06T10:22:41.810Z,2.70
2023-05-06T10:25:43.948Z,3.03
2023-05-06T10:28:27.911Z,2.83
2023-05-06T10:31:00.856Z,3.17
2023-05-06T10:33:30.521Z,2.80
2023-05-06T10:36:24.054Z,2.90
2023-05-06T10:39:02.894Z,2.27
2023-05-06T10:41:37.244Z,2.40
2023-05-06T10:44:06.195Z,2.30
2023-05-06T10:47:00.643Z,2.60
2023-05-06T10:49:29.256Z,1.97
2023-05-06T10:52:17.071Z,2.03
2023-05-06T10:54:51.882Z,1.63
2023-05-06T10:57:27.349Z,1.83
2023-05-06T10:59:56.111Z,2.30
2023-05-06T11:02:24.310Z,1.87
2023-05-06T11:05:02.001Z,1.43
2023-05-06T11:07:29.820Z,1.60
2023-05-06T11:10:07.025Z,1.50
2023-05-06T11:12:55.969Z,2.07
2023-05-06T11:15:41.393Z,1.60
2023-05-06T11:18:37.153Z,1.83
2023-05-06T11:21:31.155Z,2.07
2023-05-06T11:23:58.825Z,1.90
2023-05-06T11:26:26.430Z,2.10
2023-05-06T11:28:54.875Z,2.20
2023-05-06T11:31:23.418Z,2.10
2023-05-06T11:33:54.473Z,1.50
2023-05-06T11:36:22.999Z,1.70
2023-05-06T11:38:53.162Z,1.50
2023-05-06T11:41:23.740Z,1.60
2023-05-06T11:43:54.014Z,1.90
2023-05-06T11:46:25.473Z,1.50
2023-05-06T11:48:53.136Z,1.27
2023-05-06T11:51:24.750Z,2.00
2023-05-06T11:54:22.744Z,2.23
2023-05-06T11:56:56.381Z,1.83
2023-05-06T11:59:40.437Z,1.20
2023-05-06T12:02:13.684Z,1.23
2023-05-06T12:04:50.262Z,2.77
2023-05-06T12:07:18.153Z,1.50
2023-05-06T12:09:51.608Z,3.90
2023-05-06T12:12:24.197Z,1.90
2023-05-06T12:14:55.545Z,1.77
2023-05-06T12:17:24.158Z,1.40
2023-05-06T12:19:52.413Z,1.30
2023-05-06T12:22:27.351Z,1.90
2023-05-06T12:24:54.965Z,1.30
2023-05-06T12:27:34.587Z,2.10
2023-05-06T12:30:04.689Z,1.53
2023-05-06T12:32:32.878Z,1.27
2023-05-06T12:35:05.854Z,2.50
2023-05-06T12:37:33.662Z,1.63
2023-05-06T12:40:01.626Z,1.73
2023-05-06T12:42:29.549Z,1.17
2023-05-06T12:44:57.338Z,1.00
2023-05-06T12:47:26.734Z,1.00
2023-05-06T12:49:59.404Z,1.00
2023-05-06T12:52:30.777Z,1.17
2023-05-06T12:55:01.891Z,1.50
2023-05-06T12:57:29.493Z,1.23
2023-05-06T12:59:57.383Z,1.70
2023-05-06T13:02:25.014Z,1.00
2023-05-06T13:04:52.807Z,1.30
2023-05-06T13:07:20.674Z,1.10
2023-05-06T13:09:48.324Z,1.23
2023-05-06T13:12:15.996Z,1.20
2023-05-06T13:14:44.293Z,1.57
2023-05-06T13:17:12.036Z,1.10
2023-05-06T13:19:40.006Z,1.10
2023-05-06T13:22:07.607Z,1.20
2023-05-06T13:24:35.260Z,1.27
2023-05-06T13:27:03.294Z,1.33
2023-05-06T13:29:31.977Z,1.30
2023-05-06T13:32:00.788Z,1.07
2023-05-06T13:34:28.387Z,0.90
2023-05-06T13:36:56.896Z,1.00
2023-05-06T13:39:26.094Z,1.20
2023-05-06T13:41:54.320Z,1.17
2023-05-06T13:44:22.726Z,1.43
2023-05-06T13:46:50.579Z,1.17
2023-05-06T13:49:20.359Z,1.03
2023-05-06T13:51:48.672Z,1.10
2023-05-06T13:54:21.188Z,1.33
2023-05-06T13:56:53.163Z,0.80
2023-05-06T13:59:20.849Z,1.00
2023-05-06T14:01:50.171Z,1.30
2023-05-06T14:04:17.847Z,0.97
2023-05-06T14:06:45.474Z,1.30
2023-05-06T14:09:13.207Z,1.10
2023-05-06T14:11:40.876Z,1.43
2023-05-06T14:14:08.457Z,1.27
2023-05-06T14:16:36.108Z,1.40
2023-05-06T14:19:04.782Z,1.43
2023-05-06T14:21:33.754Z,1.30
2023-05-06T14:24:01.578Z,1.53
2023-05-06T14:26:29.301Z,1.37
2023-05-06T14:28:56.841Z,1.23
2023-05-06T14:31:24.505Z,1.00
2023-05-06T14:33:52.180Z,1.50
2023-05-06T14:36:20.784Z,1.07
2023-05-06T14:38:48.417Z,1.37
2023-05-06T14:41:15.999Z,1.47
2023-05-06T14:43:43.655Z,1.50
2023-05-06T14:46:11.428Z,1.60
2023-05-06T14:48:39.668Z,1.20
2023-05-06T14:51:07.248Z,1.20
2023-05-06T14:53:34.922Z,1.77
2023-05-06T14:56:05.836Z,1.60
2023-05-06T14:58:37.776Z,1.77
2023-05-06T15:01:09.657Z,1.33
2023-05-06T15:03:41.362Z,1.40
2023-05-06T15:06:12.551Z,1.37
2023-05-06T15:08:45.966Z,1.30
2023-05-06T15:11:17.154Z,1.30
2023-05-06T15:13:48.530Z,1.07
2023-05-06T15:16:19.064Z,1.47
2023-05-06T15:18:47.427Z,1.33
2023-05-06T15:21:15.924Z,2.33
2023-05-06T15:23:47.891Z,1.30
2023-05-06T15:26:16.010Z,1.20
2023-05-06T15:28:43.555Z,1.17
2023-05-06T15:31:11.255Z,1.83
2023-05-06T15:33:41.906Z,1.40
2023-05-06T15:36:10.353Z,1.60
2023-05-06T15:39:00.873Z,1.40
2023-05-06T15:41:35.352Z,1.37
2023-05-06T15:44:06.109Z,1.60
2023-05-06T15:46:34.408Z,2.30
2023-05-06T15:49:31.959Z,2.50
2023-05-06T15:51:50.049Z,1.87
2023-05-06T15:54:20.312Z,3.03
2023-05-06T15:56:47.988Z,2.83
2023-05-06T15:59:15.780Z,2.70
2023-05-06T16:02:24.430Z,3.13
2023-05-06T16:04:31.711Z,3.67
2023-05-06T16:06:59.660Z,3.73
2023-05-06T16:09:27.933Z,4.07
2023-05-06T16:11:55.782Z,3.80
2023-05-06T16:14:23.420Z,3.17
2023-05-06T16:16:51.751Z,4.23
2023-05-06T16:19:19.912Z,4.47
2023-05-06T16:21:48.469Z,4.03
2023-05-06T16:24:16.255Z,3.80
2023-05-06T16:26:43.818Z,4.50
2023-05-06T16:29:11.656Z,4.20
2023-05-06T16:31:39.494Z,3.83
2023-05-06T16:34:07.146Z,3.43
2023-05-06T16:36:34.733Z,3.80
2023-05-06T16:39:02.373Z,4.10
2023-05-06T16:41:30.039Z,4.63
2023-05-06T16:43:57.787Z,3.80
2023-05-06T16:46:26.400Z,3.60
2023-05-06T16:48:54.593Z,4.03
2023-05-06T16:51:22.808Z,3.37
2023-05-06T16:53:51.074Z,4.20
2023-05-06T16:56:18.592Z,3.60
2023-05-06T16:58:46.241Z,3.63
2023-05-06T17:01:13.849Z,3.53
2023-05-06T17:03:41.497Z,3.70
2023-05-06T17:06:09.074Z,4.30
2023-05-06T17:08:37.204Z,3.77
2023-05-06T17:11:07.382Z,4.53
2023-05-06T17:13:35.649Z,3.27
2023-05-06T17:16:03.187Z,4.00
2023-05-06T17:18:30.843Z,3.93
2023-05-06T17:20:58.893Z,3.83
2023-05-06T17:23:26.586Z,3.10
2023-05-06T17:25:57.473Z,3.30
2023-05-06T17:28:25.120Z,3.50
2023-05-06T17:30:52.754Z,4.50
2023-05-06T17:33:21.989Z,4.30
2023-05-06T17:35:49.700Z,4.30
2023-05-06T17:38:17.308Z,5.07
2023-05-06T17:40:45.482Z,6.67
2023-05-06T17:43:13.027Z,11.00
2023-05-06T17:45:41.823Z,10.50
2023-05-06T17:48:09.443Z,12.57
2023-05-06T17:50:37.187Z,9.57
2023-05-06T17:53:04.803Z,10.20
2023-05-06T17:55:32.400Z,9.40
2023-05-06T17:58:00.007Z,9.17
2023-05-06T18:00:27.539Z,8.30
2023-05-06T18:02:56.398Z,8.23
2023-05-06T18:05:25.901Z,6.80
2023-05-06T18:07:53.784Z,6.07
2023-05-06T18:10:21.599Z,5.60
2023-05-06T18:12:50.007Z,6.33
2023-05-06T18:15:17.667Z,7.10
2023-05-06T18:17:46.227Z,7.20
2023-05-06T18:20:14.262Z,10.70
2023-05-06T18:22:43.033Z,13.20
2023-05-06T18:25:11.312Z,10.50
2023-05-06T18:27:39.116Z,7.03
2023-05-06T18:30:08.094Z,5.97
2023-05-06T18:32:36.071Z,5.20
2023-05-06T18:35:03.947Z,6.17
2023-05-06T18:37:31.489Z,5.53
2023-05-06T18:39:59.081Z,6.30
2023-05-06T18:42:30.477Z,6.20
2023-05-06T18:44:58.108Z,6.20
2023-05-06T18:47:25.961Z,6.60
2023-05-06T18:49:53.755Z,6.27
2023-05-06T18:52:22.293Z,6.93
2023-05-06T18:54:50.348Z,6.40
2023-05-06T18:57:19.658Z,7.00
2023-05-06T18:59:47.330Z,6.70
2023-05-06T19:02:15.050Z,6.50
2023-05-06T19:04:43.545Z,6.83
2023-05-06T19:07:12.438Z,6.00
2023-05-06T19:09:43.590Z,6.03
2023-05-06T19:12:11.625Z,7.10
2023-05-06T19:14:39.140Z,7.10
2023-05-06T19:17:06.897Z,7.53
2023-05-06T19:19:34.550Z,7.13
2023-05-06T19:22:02.378Z,7.97
2023-05-06T19:24:31.289Z,7.60
2023-05-06T19:26:59.230Z,7.10
2023-05-06T19:29:26.820Z,7.63
2023-05-06T19:31:54.812Z,8.10
2023-05-06T19:34:22.439Z,7.40
2023-05-06T19:36:50.024Z,7.60
2023-05-06T19:39:17.623Z,7.73
2023-05-06T19:41:45.435Z,8.27
2023-05-06T19:44:13.221Z,7.10
2023-05-06T19:46:40.994Z,7.87
2023-05-06T19:49:08.654Z,9.77
2023-05-06T19:51:36.252Z,9.43
2023-05-06T19:54:04.056Z,8.70
2023-05-06T19:56:31.680Z,8.13
2023-05-06T19:58:59.920Z,7.77
2023-05-06T20:01:27.563Z,9.23
2023-05-06T20:03:55.820Z,8.23
2023-05-06T20:06:23.551Z,9.40
2023-05-06T20:08:51.096Z,9.03
2023-05-06T20:11:18.738Z,9.67
2023-05-06T20:13:46.536Z,9.50
2023-05-06T20:16:14.126Z,9.20
2023-05-06T20:18:42.903Z,9.90
2023-05-06T20:21:10.605Z,9.10
2023-05-06T20:23:38.263Z,9.53
2023-05-06T20:26:06.455Z,8.40
2023-05-06T20:28:37.766Z,9.30
2023-05-06T20:31:07.276Z,9.00
2023-05-06T20:33:34.980Z,7.60
2023-05-06T20:36:04.056Z,7.80
2023-05-06T20:38:31.729Z,7.63
2023-05-06T20:41:01.728Z,8.17
2023-05-06T20:43:30.573Z,8.80
2023-05-06T20:45:58.166Z,7.20
2023-05-06T20:48:27.845Z,7.83
2023-05-06T20:50:57.211Z,9.07
2023-05-06T20:53:26.878Z,7.87
2023-05-06T20:55:54.623Z,8.17
2023-05-06T20:58:22.354Z,9.10
2023-05-06T21:00:50.622Z,9.23
2023-05-06T21:03:18.410Z,8.90
2023-05-06T21:05:46.187Z,8.93
2023-05-06T21:08:13.919Z,8.90
2023-05-06T21:10:41.661Z,9.10
2023-05-06T21:13:09.353Z,9.93
2023-05-06T21:15:38.251Z,9.60
2023-05-06T21:18:06.189Z,11.57
2023-05-06T21:20:34.838Z,9.33
2023-05-06T21:23:03.602Z,10.70
2023-05-06T21:25:31.394Z,9.80
2023-05-06T21:28:03.277Z,10.90
2023-05-06T21:30:31.266Z,10.70
2023-05-06T21:32:58.968Z,11.70
2023-05-06T21:35:27.529Z,12.00
2023-05-06T21:37:55.117Z,12.20
2023-05-06T21:40:22.938Z,13.53
2023-05-06T21:42:53.120Z,14.10
2023-05-06T21:45:21.841Z,14.13
2023-05-06T21:47:49.822Z,15.60
2023-05-06T21:50:17.661Z,16.00
2023-05-06T21:52:45.964Z,16.33
2023-05-06T21:55:13.861Z,15.70
2023-05-06T21:57:41.572Z,15.70
2023-05-06T22:00:12.145Z,13.03
2023-05-06T22:02:41.449Z,15.93
2023-05-06T22:05:10.586Z,16.33
2023-05-06T22:07:38.561Z,16.53
2023-05-06T22:10:07.340Z,16.63
2023-05-06T22:12:36.651Z,15.83
2023-05-06T22:15:05.402Z,17.63
2023-05-06T22:17:34.767Z,15.97
2023-05-06T22:20:02.605Z,15.60
2023-05-06T22:22:30.769Z,16.43
2023-05-06T22:24:58.484Z,15.80
2023-05-06T22:27:26.069Z,16.50
2023-05-06T22:29:53.749Z,15.57
2023-05-06T22:32:21.936Z,15.37
2023-05-06T22:34:49.613Z,14.77
2023-05-06T22:37:17.243Z,16.87
2023-05-06T22:39:45.026Z,16.50
2023-05-06T22:42:12.653Z,16.73
2023-05-06T22:44:40.413Z,16.87
2023-05-06T22:47:08.006Z,17.43
2023-05-06T22:49:36.526Z,17.13
2023-05-06T22:52:05.714Z,15.40
2023-05-06T22:54:33.655Z,17.00
2023-05-06T22:57:02.047Z,19.63
2023-05-06T22:59:30.276Z,17.73
2023-05-06T23:01:57.932Z,19.70
2023-05-06T23:04:25.551Z,19.00
2023-05-06T23:06:53.244Z,20.13
2023-05-06T23:09:21.169Z,18.97
2023-05-06T23:11:48.909Z,17.97
2023-05-06T23:14:17.462Z,18.07
2023-05-06T23:16:45.103Z,17.47
2023-05-06T23:19:12.989Z,17.27
2023-05-06T23:21:44.136Z,16.43
2023-05-06T23:24:12.421Z,17.60
2023-05-06T23:26:40.155Z,17.60
2023-05-06T23:29:07.822Z,18.40
2023-05-06T23:31:35.454Z,17.03
2023-05-06T23:34:03.495Z,18.57
2023-05-06T23:36:31.230Z,17.90
2023-05-06T23:38:58.747Z,17.43
2023-05-06T23:41:26.318Z,18.27
2023-05-06T23:43:54.008Z,19.47
2023-05-06T23:46:21.570Z,18.40
2023-05-06T23:48:49.458Z,17.10
2023-05-06T23:51:17.072Z,17.53
2023-05-06T23:53:45.508Z,18.87
2023-05-06T23:56:13.201Z,17.00
2023-05-06T23:58:41.340Z,18.27
